Погода Тимковона 2 недели

Тверская область, Россия

19 - 31 мая
  • 19мая
    Сегодня
    +11°
    +24°
    Ясно и безоблачно
    ВремяПогодаТемператураВлажностьДавлениеВетер, м/сВероятность осадков
    00:00Ясно и безоблачно+11°C63 %750 мм1.3 м/с2 %
    03:00Ясно и безоблачно+8°C73 %750 мм1.2 м/с2 %
    06:00Ясно и безоблачно+10°C77 %750 мм1.3 м/с2 %
    09:00Ясно и безоблачно+18°C58 %750 мм1.8 м/с2 %
    12:00Ясно и безоблачно+22°C41 %750 мм2.3 м/с2 %
    15:00Ясно и безоблачно+23°C40 %749 мм2.0 м/с2 %
    18:00Ясно и безоблачно+23°C42 %748 мм2.1 м/с2 %
    21:00Ясно и безоблачно+17°C58 %747 мм1.4 м/с2 %
  • 20мая
    Понедельник
    +9°
    +23°
    Практически безоблачно
    ВремяПогодаТемператураВлажностьДавлениеВетер, м/сВероятность осадков
    00:00Ясно и безоблачно+13°C68 %747 мм1.5 м/с2 %
    03:00Небольшая облачность+11°C71 %747 мм1.7 м/с2 %
    06:00Ясно и безоблачно+12°C71 %747 мм1.9 м/с2 %
    09:00Практически безоблачно+19°C57 %747 мм2.5 м/с2 %
    12:00Ясно и безоблачно+22°C44 %747 мм3.2 м/с12 %
    15:00Практически безоблачно+22°C43 %746 мм2.6 м/с19 %
    18:00Облачно с прояснениями+20°C62 %747 мм2.0 м/с43 %
    21:00Небольшая облачность+15°C89 %747 мм0.4 м/с20 %
  • 21мая
    Вторник
    +7°
    +22°
    Ясно и безоблачно
    ВремяПогодаТемператураВлажностьДавлениеВетер, м/сВероятность осадков
    00:00Практически безоблачно+13°C95 %748 мм0.6 м/с3 %
    03:00Небольшая облачность+10°C88 %749 мм1.3 м/с6 %
    06:00Практически безоблачно+10°C78 %750 мм1.2 м/с4 %
    09:00Практически безоблачно+16°C62 %750 мм1.3 м/с4 %
    12:00Облачно с прояснениями+19°C45 %751 мм2.5 м/с5 %
    15:00Ясно и безоблачно+21°C40 %750 мм2.6 м/с5 %
    18:00Ясно и безоблачно+20°C36 %750 мм2.5 м/с3 %
    21:00Ясно и безоблачно+15°C55 %751 мм1.5 м/с2 %
  • 22мая
    Среда
    +6°
    +22°
    Ясно и безоблачно
    ВремяПогодаТемператураВлажностьДавлениеВетер, м/сВероятность осадков
    00:00Ясно и безоблачно+10°C48 %752 мм1.7 м/с2 %
    03:00Ясно и безоблачно+7°C59 %752 мм1.8 м/с2 %
    06:00Ясно и безоблачно+8°C58 %753 мм1.8 м/с2 %
    09:00Ясно и безоблачно+15°C47 %754 мм2.6 м/с2 %
    12:00Ясно и безоблачно+17°C36 %754 мм3.4 м/с2 %
    15:00Ясно и безоблачно+18°C33 %753 мм3.2 м/с3 %
    18:00Ясно и безоблачно+17°C36 %753 мм3.1 м/с4 %
    21:00Ясно и безоблачно+13°C49 %754 мм1.7 м/с2 %
Мы используем cookies
Соглашаюсь